Time;durP1;ratioP1;P1;durP2;ratioP2;P2;SDS_P1;SDS_P2;PMS_P1;PMS_P2;Temp;Humidity;BMP_temperature;BMP_pressure;BME280_temperature;BME280_humidity;BME280_pressure;Samples;Min_cycle;Max_cycle;Signal;HPM_P1;HPM_P2
2022/05/14 00:00:53;;;;;;;15.15;5.90;;;588.90;2252.80;;;;;;5095953;28;20048;-84
2022/05/14 00:03:20;;;;;;;7.05;4.43;;;588.90;2252.80;;;;;;5095654;28;20117;-83
2022/05/14 00:05:47;;;;;;;11.25;4.70;;;588.90;2252.80;;;;;;5096109;28;20077;-87
2022/05/14 00:08:15;;;;;;;9.55;4.85;;;588.90;2252.80;;;;;;5095950;28;20077;-87
2022/05/14 00:13:26;;;;;;;10.93;4.70;;;588.80;2252.80;;;;;;5111845;28;20035;-81
2022/05/14 00:15:53;;;;;;;8.45;4.80;;;588.80;2278.40;;;;;;5095298;28;20020;-84
2022/05/14 00:18:21;;;;;;;10.15;5.63;;;588.80;2252.80;;;;;;5095919;28;20016;-87
2022/05/14 00:20:47;;;;;;;8.52;4.50;;;564.10;2304.00;;;;;;5095496;28;20409;-86
2022/05/14 00:23:14;;;;;;;5.43;4.45;;;588.80;2278.40;;;;;;5095540;28;20024;-86
2022/05/14 00:25:41;;;;;;;5.18;3.85;;;588.80;2278.40;;;;;;5095603;28;20055;-86
2022/05/14 00:28:08;;;;;;;7.15;4.72;;;564.10;2304.00;;;;;;5095502;28;20024;-86
2022/05/14 00:30:34;;;;;;;9.25;4.35;;;564.10;2329.60;;;;;;5095305;28;20505;-83
2022/05/14 00:33:00;;;;;;;6.35;4.03;;;564.00;2355.20;;;;;;5095952;28;20548;-85
2022/05/14 00:35:26;;;;;;;5.68;4.05;;;564.00;2329.60;;;;;;5095553;28;20031;-85
2022/05/14 00:37:52;;;;;;;10.82;4.95;;;564.00;2355.20;;;;;;5095609;28;20015;-85
2022/05/14 00:40:35;;;;;;;6.88;4.38;;;563.90;2406.40;;;;;;5095123;28;20054;-83
2022/05/14 00:43:01;;;;;;;44.72;5.28;;;563.90;2406.40;;;;;;5095048;28;20043;-86
2022/05/14 00:45:29;;;;;;;8.57;3.90;;;564.10;2380.80;;;;;;5095089;28;20019;-85
2022/05/14 00:47:59;;;;;;;12.48;5.13;;;564.10;2380.80;;;;;;5095263;28;20126;-85
2022/05/14 00:50:37;;;;;;;7.22;4.72;;;588.80;2355.20;;;;;;5092263;28;20023;-86
2022/05/14 00:53:18;;;;;;;12.13;4.40;;;588.80;2380.80;;;;;;5095294;28;20044;-85
2022/05/14 00:55:46;;;;;;;13.70;4.25;;;588.80;2380.80;;;;;;5094696;28;20455;-83
2022/05/14 00:58:35;;;;;;;9.23;5.50;;;588.80;2355.20;;;;;;5095362;28;20039;-86
2022/05/14 01:01:01;;;;;;;10.57;4.72;;;588.80;2355.20;;;;;;5094324;28;20046;-86
2022/05/14 01:03:27;;;;;;;10.85;5.05;;;588.80;2355.20;;;;;;5094931;28;20027;-86
2022/05/14 01:05:54;;;;;;;8.15;4.90;;;588.80;2380.80;;;;;;5095124;28;20024;-83
2022/05/14 01:08:20;;;;;;;10.43;5.25;;;564.10;2380.80;;;;;;5095017;28;20035;-84
2022/05/14 01:10:47;;;;;;;10.35;4.80;;;564.10;2355.20;;;;;;5092192;28;20070;-85
2022/05/14 01:13:13;;;;;;;11.02;5.63;;;588.80;2355.20;;;;;;5111775;28;20024;-85
2022/05/14 01:15:49;;;;;;;7.95;5.38;;;588.80;2380.80;;;;;;5094903;28;20059;-85
2022/05/14 01:18:17;;;;;;;10.15;6.43;;;564.10;2355.20;;;;;;5110662;28;20020;-84
2022/05/14 01:20:57;;;;;;;9.35;6.45;;;564.10;2380.80;;;;;;5094731;28;20058;-86
2022/05/14 01:26:29;;;;;;;11.23;5.85;;;564.10;2380.80;;;;;;5110630;28;20058;-86
2022/05/14 01:29:07;;;;;;;12.32;5.53;;;564.00;2406.40;;;;;;5113271;28;20395;-86
2022/05/14 01:31:34;;;;;;;8.77;5.47;;;564.00;2380.80;;;;;;5095049;28;20028;-82
2022/05/14 01:34:02;;;;;;;8.95;5.78;;;563.90;2380.80;;;;;;5098925;28;20490;-84
2022/05/14 01:36:28;;;;;;;10.05;5.40;;;563.80;2406.40;;;;;;5096191;28;20501;-85
2022/05/14 01:38:55;;;;;;;11.15;5.82;;;563.70;2406.40;;;;;;5098913;28;20015;-85
2022/05/14 01:41:21;;;;;;;11.27;5.45;;;563.70;2432.00;;;;;;5098037;28;20027;-86
2022/05/14 01:43:47;;;;;;;13.07;5.57;;;563.60;2432.00;;;;;;5098578;28;20023;-85
2022/05/14 01:46:13;;;;;;;11.73;5.40;;;563.50;2432.00;;;;;;5098550;28;20027;-88
2022/05/14 01:48:39;;;;;;;11.30;5.90;;;563.50;2432.00;;;;;;5098458;28;20020;-82
2022/05/14 01:51:05;;;;;;;11.93;5.47;;;563.40;2432.00;;;;;;5098551;28;20560;-86
2022/05/14 01:53:31;;;;;;;12.45;6.20;;;563.30;2432.00;;;;;;5116682;28;20022;-86
2022/05/14 01:55:57;;;;;;;9.10;6.28;;;563.20;2432.00;;;;;;5098387;28;20494;-86
2022/05/14 01:58:38;;;;;;;10.13;6.05;;;563.20;2432.00;;;;;;5098092;28;20028;-85
2022/05/14 02:01:22;;;;;;;9.52;6.07;;;563.30;2432.00;;;;;;5092491;28;20475;-84
2022/05/14 02:04:00;;;;;;;7.80;5.82;;;563.30;2432.00;;;;;;5084349;28;20074;-84
2022/05/14 02:06:28;;;;;;;11.43;5.78;;;563.40;2432.00;;;;;;5086617;28;20019;-86
2022/05/14 02:08:55;;;;;;;14.30;7.00;;;563.40;2432.00;;;;;;5088134;28;20491;-85
2022/05/14 02:11:21;;;;;;;7.78;5.40;;;563.30;2432.00;;;;;;5087075;28;20040;-83
2022/05/14 02:13:48;;;;;;;10.32;6.45;;;563.30;2432.00;;;;;;5085661;28;20024;-85
2022/05/14 02:16:14;;;;;;;7.95;5.75;;;563.20;2432.00;;;;;;5107075;28;20173;-86
2022/05/14 02:18:40;;;;;;;8.90;6.35;;;538.50;2406.40;;;;;;5087917;28;20047;-83
2022/05/14 02:21:06;;;;;;;12.32;7.15;;;538.40;2406.40;;;;;;5107687;28;20023;-86
2022/05/14 02:23:36;;;;;;;9.18;6.57;;;538.40;2406.40;;;;;;5086675;28;20051;-86
2022/05/14 02:26:03;;;;;;;12.45;7.00;;;538.20;2406.40;;;;;;5107860;28;20024;-86
2022/05/14 02:28:29;;;;;;;6.93;5.45;;;538.10;2406.40;;;;;;5088506;28;20019;-86
2022/05/14 02:30:54;;;;;;;7.30;5.38;;;538.10;2406.40;;;;;;5088851;28;20035;-86
2022/05/14 02:33:20;;;;;;;9.82;7.15;;;538.10;2406.40;;;;;;5088082;28;20375;-88
2022/05/14 02:35:46;;;;;;;11.57;7.65;;;538.10;2406.40;;;;;;5086154;28;20027;-83
2022/05/14 02:38:14;;;;;;;13.23;6.75;;;538.10;2406.40;;;;;;5086351;28;20020;-86
2022/05/14 02:40:39;;;;;;;8.80;6.35;;;538.00;2406.40;;;;;;5085690;28;20032;-84
2022/05/14 02:43:05;;;;;;;11.43;5.95;;;538.00;2406.40;;;;;;5086473;28;20048;-83
2022/05/14 02:45:32;;;;;;;10.57;6.75;;;537.90;2406.40;;;;;;5087774;28;20382;-83
2022/05/14 02:47:58;;;;;;;13.20;6.15;;;538.00;2406.40;;;;;;5106106;28;20079;-82
2022/05/14 02:50:24;;;;;;;10.75;5.82;;;537.90;2406.40;;;;;;5087376;28;20127;-82
2022/05/14 02:52:50;;;;;;;11.55;5.60;;;537.80;2406.40;;;;;;5085698;28;20024;-82
2022/05/14 02:55:16;;;;;;;14.90;6.32;;;537.80;2406.40;;;;;;5103619;28;20491;-83
2022/05/14 02:57:41;;;;;;;13.75;6.07;;;537.70;2406.40;;;;;;5088882;28;20028;-83
2022/05/14 03:00:11;;;;;;;13.85;5.72;;;537.80;2406.40;;;;;;5085323;28;20048;-82
2022/05/14 03:02:37;;;;;;;8.43;5.45;;;537.80;2406.40;;;;;;5106139;28;20024;-82
2022/05/14 03:05:05;;;;;;;12.88;6.13;;;537.90;2406.40;;;;;;5104325;28;20020;-83
2022/05/14 03:07:31;;;;;;;11.10;6.05;;;537.80;2406.40;;;;;;5087479;28;20022;-81
2022/05/14 03:09:56;;;;;;;9.27;5.80;;;537.70;2406.40;;;;;;5086054;28;20118;-82
2022/05/14 03:12:22;;;;;;;6.75;4.70;;;512.90;2380.80;;;;;;5085306;28;20453;-82
2022/05/14 03:14:49;;;;;;;8.85;4.88;;;537.60;2406.40;;;;;;5087391;28;20016;-82
2022/05/14 03:17:16;;;;;;;8.73;4.90;;;512.90;2380.80;;;;;;5084735;28;20107;-82
2022/05/14 03:19:42;;;;;;;7.68;4.90;;;537.80;2406.40;;;;;;5087617;28;20024;-82
2022/05/14 03:22:08;;;;;;;7.80;4.43;;;537.60;2406.40;;;;;;5087589;28;20024;-82
2022/05/14 03:24:36;;;;;;;9.63;4.88;;;537.80;2406.40;;;;;;5081862;28;20019;-82
2022/05/14 03:27:03;;;;;;;10.82;4.95;;;537.90;2406.40;;;;;;5086233;28;20020;-82
2022/05/14 03:29:29;;;;;;;8.43;5.07;;;537.90;2406.40;;;;;;5084423;28;20055;-82
2022/05/14 03:31:57;;;;;;;14.43;4.93;;;538.00;2406.40;;;;;;5087046;28;20467;-82
2022/05/14 03:34:23;;;;;;;18.15;5.07;;;537.90;2406.40;;;;;;5104236;28;20105;-82
2022/05/14 03:36:49;;;;;;;10.30;5.45;;;512.70;2380.80;;;;;;5084773;28;20031;-80
2022/05/14 03:39:15;;;;;;;12.07;5.70;;;538.00;2406.40;;;;;;5087592;28;20023;-81
2022/05/14 03:41:41;;;;;;;10.45;5.15;;;537.90;2406.40;;;;;;5103725;28;20020;-82
2022/05/14 03:44:08;;;;;;;9.48;5.38;;;538.00;2406.40;;;;;;5086725;28;20043;-81
2022/05/14 03:46:34;;;;;;;10.55;4.65;;;538.10;2406.40;;;;;;5082427;28;20024;-82
2022/05/14 03:49:00;;;;;;;9.48;4.93;;;537.90;2406.40;;;;;;5085600;28;20026;-82
2022/05/14 03:51:26;;;;;;;9.95;5.53;;;538.00;2406.40;;;;;;5085403;28;20407;-82
2022/05/14 03:53:52;;;;;;;13.35;6.05;;;538.00;2406.40;;;;;;5102133;28;20048;-81
2022/05/14 03:56:18;;;;;;;9.00;4.95;;;538.00;2406.40;;;;;;5086096;28;20486;-82
2022/05/14 03:58:44;;;;;;;8.88;5.63;;;538.00;2406.40;;;;;;5086545;28;20413;-82
2022/05/14 04:01:10;;;;;;;8.85;5.22;;;537.90;2406.40;;;;;;5083576;28;20496;-82
2022/05/14 04:03:36;;;;;;;11.80;5.68;;;538.00;2406.40;;;;;;5084685;28;20459;-82
2022/05/14 04:06:03;;;;;;;13.57;5.55;;;538.00;2406.40;;;;;;5085405;28;20052;-82
2022/05/14 04:08:29;;;;;;;9.73;6.15;;;538.00;2406.40;;;;;;5101995;28;20024;-82
2022/05/14 04:10:55;;;;;;;9.45;5.78;;;537.90;2406.40;;;;;;5084244;28;20131;-81
2022/05/14 04:13:21;;;;;;;10.35;5.40;;;537.90;2406.40;;;;;;5085717;28;20051;-82
2022/05/14 04:15:47;;;;;;;12.10;6.30;;;537.90;2406.40;;;;;;5103930;28;20095;-82
2022/05/14 04:18:13;;;;;;;9.00;5.70;;;538.00;2406.40;;;;;;5083169;28;20463;-82
2022/05/14 04:20:40;;;;;;;8.75;6.07;;;538.00;2406.40;;;;;;5084671;28;20024;-83
2022/05/14 04:23:07;;;;;;;10.80;5.95;;;538.00;2406.40;;;;;;5103120;28;20090;-83
2022/05/14 04:25:33;;;;;;;7.82;5.32;;;538.00;2406.40;;;;;;5085991;28;20045;-82
2022/05/14 04:27:59;;;;;;;9.65;6.05;;;538.00;2406.40;;;;;;5085770;28;20023;-83
2022/05/14 04:30:25;;;;;;;7.72;5.95;;;538.00;2406.40;;;;;;5083332;28;20024;-82
2022/05/14 04:32:51;;;;;;;8.98;6.05;;;538.10;2406.40;;;;;;5084924;28;20479;-80
2022/05/14 04:35:18;;;;;;;7.57;5.80;;;538.10;2406.40;;;;;;5104061;28;20024;-82
2022/05/14 04:37:43;;;;;;;15.55;9.38;;;538.20;2406.40;;;;;;5083164;28;20027;-79
2022/05/14 04:40:10;;;;;;;22.45;14.63;;;538.20;2406.40;;;;;;5082726;28;20024;-81
2022/05/14 04:42:38;;;;;;;27.70;19.08;;;538.20;2406.40;;;;;;5083433;28;20028;-80
2022/05/14 04:45:08;;;;;;;46.53;24.42;;;538.20;2406.40;;;;;;5102745;28;20024;-81
2022/05/14 04:47:35;;;;;;;29.73;20.70;;;538.20;2406.40;;;;;;5086064;28;20012;-81
2022/05/14 04:50:01;;;;;;;23.30;11.45;;;538.30;2406.40;;;;;;5086073;28;20031;-81
2022/05/14 04:52:26;;;;;;;11.25;7.57;;;538.20;2406.40;;;;;;5104665;28;20019;-81
2022/05/14 04:54:52;;;;;;;8.07;5.75;;;538.20;2406.40;;;;;;5085864;28;20155;-81
2022/05/14 04:57:18;;;;;;;8.50;5.60;;;538.30;2406.40;;;;;;5099084;28;20080;-80
2022/05/14 04:59:43;;;;;;;8.20;5.68;;;538.40;2406.40;;;;;;5085604;28;20023;-81
2022/05/14 05:04:54;;;;;;;9.18;5.28;;;538.40;2406.40;;;;;;5106284;28;20035;-83
2022/05/14 05:07:20;;;;;;;11.10;4.95;;;538.40;2406.40;;;;;;5090427;28;20069;-82
2022/05/14 05:09:46;;;;;;;9.82;5.22;;;538.40;2406.40;;;;;;5106754;28;20070;-87
2022/05/14 05:12:12;;;;;;;10.02;4.75;;;538.50;2406.40;;;;;;5087156;28;20116;-81
2022/05/14 05:14:38;;;;;;;9.88;5.78;;;538.50;2406.40;;;;;;5084605;28;20110;-85
2022/05/14 05:17:04;;;;;;;10.27;5.40;;;563.30;2432.00;;;;;;5088547;28;20111;-82
2022/05/14 05:19:30;;;;;;;15.90;6.18;;;563.30;2432.00;;;;;;5088313;28;20108;-82
2022/05/14 05:21:57;;;;;;;12.75;6.53;;;563.40;2432.00;;;;;;5107450;28;20016;-80
2022/05/14 05:24:23;;;;;;;10.60;5.82;;;563.30;2432.00;;;;;;5088017;28;20024;-80
2022/05/14 05:26:48;;;;;;;12.00;5.28;;;563.40;2432.00;;;;;;5087830;28;20024;-79
2022/05/14 05:29:14;;;;;;;8.90;5.22;;;563.30;2432.00;;;;;;5089383;28;20506;-81
2022/05/14 05:31:40;;;;;;;6.38;4.97;;;563.60;2432.00;;;;;;5089365;28;20023;-80
2022/05/14 05:34:06;;;;;;;9.65;4.32;;;563.60;2432.00;;;;;;5086558;28;20391;-85
2022/05/14 05:36:31;;;;;;;9.23;5.07;;;563.70;2432.00;;;;;;5086709;28;20020;-79
2022/05/14 05:38:58;;;;;;;10.52;5.20;;;563.60;2432.00;;;;;;5103572;28;20564;-78
2022/05/14 05:41:24;;;;;;;7.70;4.43;;;563.60;2432.00;;;;;;5102146;28;20051;-78
2022/05/14 05:43:50;;;;;;;10.02;6.03;;;563.70;2432.00;;;;;;5088051;28;20048;-80
2022/05/14 05:46:16;;;;;;;9.18;5.32;;;563.60;2432.00;;;;;;5086811;28;20059;-80
2022/05/14 05:48:43;;;;;;;7.78;5.22;;;563.40;2432.00;;;;;;5089242;28;20110;-80
2022/05/14 05:51:09;;;;;;;7.93;5.53;;;563.40;2432.00;;;;;;5088799;28;20032;-79
2022/05/14 05:59:05;;;;;;;5.72;4.50;;;563.80;2432.00;;;;;;5103528;28;20108;-83
2022/05/14 06:01:31;;;;;;;7.57;4.40;;;588.80;2432.00;;;;;;5111235;28;20046;-80
2022/05/14 06:03:57;;;;;;;8.35;5.20;;;564.00;2432.00;;;;;;5088535;28;20028;-79
2022/05/14 06:06:24;;;;;;;11.63;4.70;;;564.10;2432.00;;;;;;5086825;28;20089;-79
2022/05/14 06:08:50;;;;;;;9.82;5.63;;;563.90;2432.00;;;;;;5089056;28;20028;-80
2022/05/14 06:11:17;;;;;;;12.98;5.53;;;564.00;2432.00;;;;;;5089288;28;20092;-79
2022/05/14 06:13:44;;;;;;;11.93;6.35;;;564.10;2432.00;;;;;;5098191;28;20051;-80
2022/05/14 06:16:11;;;;;;;12.98;4.95;;;563.50;2432.00;;;;;;5085840;28;20024;-79
2022/05/14 06:18:37;;;;;;;9.10;5.47;;;564.10;2432.00;;;;;;5106368;28;20024;-81
2022/05/14 06:21:04;;;;;;;10.27;5.57;;;564.10;2432.00;;;;;;5104497;28;20016;-79
2022/05/14 06:23:30;;;;;;;8.15;4.93;;;588.80;2432.00;;;;;;5087020;28;20041;-78
2022/05/14 06:25:56;;;;;;;10.32;5.35;;;564.10;2432.00;;;;;;5087771;28;20125;-79
2022/05/14 06:28:22;;;;;;;12.95;5.65;;;588.90;2432.00;;;;;;5085608;28;20058;-78
2022/05/14 06:30:47;;;;;;;13.60;8.55;;;589.10;2432.00;;;;;;5088283;28;20496;-78
2022/05/14 06:33:14;;;;;;;8.13;5.60;;;589.30;2432.00;;;;;;5086282;28;20383;-78
2022/05/14 06:35:40;;;;;;;10.05;5.50;;;589.20;2432.00;;;;;;5106278;28;20468;-78
2022/05/14 06:38:06;;;;;;;11.05;6.03;;;589.30;2432.00;;;;;;5085887;28;20028;-78
2022/05/14 06:40:33;;;;;;;11.32;5.50;;;589.20;2432.00;;;;;;5085749;28;20028;-78
2022/05/14 06:43:00;;;;;;;12.18;6.03;;;589.50;2380.80;;;;;;5105944;28;20073;-78
2022/05/14 06:45:25;;;;;;;10.55;5.88;;;589.50;2329.60;;;;;;5086699;28;20020;-78
2022/05/14 06:47:53;;;;;;;14.40;6.65;;;589.60;2406.40;;;;;;5086674;28;20530;-78
2022/05/14 06:50:19;;;;;;;10.57;5.72;;;589.60;2355.20;;;;;;5085215;28;20047;-77
2022/05/14 06:52:48;;;;;;;11.20;5.15;;;589.60;2329.60;;;;;;5086943;28;20019;-77
2022/05/14 06:55:17;;;;;;;9.75;5.72;;;589.70;2329.60;;;;;;5104721;28;20032;-77
2022/05/14 06:57:43;;;;;;;10.30;5.78;;;614.40;2329.60;;;;;;5084942;28;20111;-79
2022/05/14 07:00:10;;;;;;;22.00;8.18;;;614.50;2304.00;;;;;;5084809;28;20050;-79
2022/05/14 07:02:37;;;;;;;10.80;6.47;;;614.60;2227.20;;;;;;5085069;28;20070;-78
2022/05/14 07:07:48;;;;;;;8.75;5.10;;;614.60;2252.80;;;;;;5101606;28;20429;-81
2022/05/14 07:10:14;;;;;;;7.75;5.72;;;614.60;2304.00;;;;;;5084738;28;20130;-80
2022/05/14 07:12:40;;;;;;;13.70;5.80;;;614.50;2278.40;;;;;;5084415;28;20122;-81
2022/05/14 07:15:07;;;;;;;8.23;5.55;;;614.60;2252.80;;;;;;5084048;28;20112;-78
2022/05/14 07:17:33;;;;;;;8.50;5.50;;;614.70;2329.60;;;;;;5105968;28;20073;-78
2022/05/14 07:19:59;;;;;;;11.57;5.47;;;614.90;2227.20;;;;;;5084658;28;20019;-78
2022/05/14 07:22:26;;;;;;;7.70;5.10;;;614.80;2278.40;;;;;;5087050;28;20016;-80
2022/05/14 07:24:51;;;;;;;11.23;5.55;;;614.80;2252.80;;;;;;5086665;28;20546;-80
2022/05/14 07:27:17;;;;;;;10.13;5.57;;;614.80;2329.60;;;;;;5103561;28;20150;-78
2022/05/14 07:29:45;;;;;;;9.57;5.72;;;614.80;2227.20;;;;;;5084421;28;20039;-79
2022/05/14 07:32:14;;;;;;;7.93;5.65;;;615.00;2252.80;;;;;;5084606;28;20885;-79
2022/05/14 07:34:40;;;;;;;13.68;5.90;;;615.10;2278.40;;;;;;5084872;28;20076;-78
2022/05/14 07:37:16;;;;;;;8.35;6.13;;;615.20;2176.00;;;;;;5086031;28;20108;-78
2022/05/14 07:39:48;;;;;;;10.15;6.20;;;640.00;2201.60;;;;;;5104767;28;20015;-78
2022/05/14 07:42:27;;;;;;;10.60;5.15;;;640.00;2176.00;;;;;;5083439;28;20122;-77
2022/05/14 07:44:55;;;;;;;9.25;6.05;;;640.20;2201.60;;;;;;5082725;28;20379;-78
2022/05/14 07:47:22;;;;;;;9.68;5.35;;;640.20;2124.80;;;;;;5084066;28;20110;-77
2022/05/14 07:49:49;;;;;;;8.07;5.00;;;640.20;2150.40;;;;;;5099358;28;20024;-78
2022/05/14 07:52:16;;;;;;;12.80;5.30;;;640.30;2150.40;;;;;;5105456;28;20100;-77
2022/05/14 07:54:42;;;;;;;11.25;6.93;;;640.20;2150.40;;;;;;5099268;28;20027;-78
2022/05/14 07:57:08;;;;;;;11.48;5.88;;;640.40;2124.80;;;;;;5101302;28;20019;-78
2022/05/14 07:59:35;;;;;;;9.35;6.13;;;640.50;2073.60;;;;;;5095485;28;20073;-78
2022/05/14 08:02:06;;;;;;;9.10;5.43;;;640.50;2124.80;;;;;;5074362;28;20036;-78
2022/05/14 08:04:33;;;;;;;11.80;5.70;;;640.50;2073.60;;;;;;5090828;28;20020;-78
2022/05/14 08:06:58;;;;;;;9.68;5.13;;;640.60;2124.80;;;;;;5092661;28;20020;-78
2022/05/14 08:09:30;;;;;;;9.63;5.55;;;640.70;2073.60;;;;;;5074616;28;20035;-80
2022/05/14 08:11:58;;;;;;;11.88;5.10;;;640.80;2073.60;;;;;;5074209;28;20103;-78
2022/05/14 08:14:25;;;;;;;7.38;4.78;;;640.80;2048.00;;;;;;5074421;28;20115;-78
2022/05/14 08:16:51;;;;;;;9.02;6.07;;;640.80;2099.20;;;;;;5073915;28;20031;-78
2022/05/14 08:19:17;;;;;;;10.02;5.28;;;665.60;2099.20;;;;;;5074553;28;20024;-78
2022/05/14 08:24:30;;;;;;;7.05;5.10;;;665.70;2048.00;;;;;;5092632;28;20073;-78
2022/05/14 08:26:55;;;;;;;10.85;7.28;;;665.60;2022.40;;;;;;5073900;28;20365;-78
2022/05/14 08:29:22;;;;;;;10.07;6.45;;;665.60;1996.80;;;;;;5073912;28;20085;-78
2022/05/14 08:31:49;;;;;;;17.52;5.88;;;665.70;2022.40;;;;;;5092238;28;20020;-78
2022/05/14 08:34:15;;;;;;;10.00;5.32;;;665.80;2022.40;;;;;;5092439;28;20116;-78
2022/05/14 08:36:41;;;;;;;8.13;4.50;;;665.80;2048.00;;;;;;5073580;28;20115;-78
2022/05/14 08:39:07;;;;;;;10.70;4.78;;;665.70;1996.80;;;;;;5074114;28;20024;-78
2022/05/14 08:41:37;;;;;;;7.88;4.70;;;665.70;1996.80;;;;;;5073968;28;20019;-78
2022/05/14 08:44:18;;;;;;;6.82;5.28;;;665.80;1996.80;;;;;;5074038;28;20110;-79
2022/05/14 08:46:45;;;;;;;8.90;4.63;;;665.90;2022.40;;;;;;5073429;28;20081;-78
2022/05/14 08:49:19;;;;;;;9.48;5.10;;;665.90;1945.60;;;;;;5071313;28;20460;-78
2022/05/14 08:51:50;;;;;;;9.32;4.90;;;665.80;1945.60;;;;;;5074017;28;20484;-78
2022/05/14 08:54:17;;;;;;;6.40;5.03;;;665.90;1996.80;;;;;;5092106;28;20095;-78
2022/05/14 08:57:30;;;;;;;8.40;4.80;;;665.90;1920.00;;;;;;5073968;28;20044;-79
2022/05/14 09:00:00;;;;;;;8.35;5.32;;;665.90;1920.00;;;;;;5069337;28;20027;-78
2022/05/14 09:02:34;;;;;;;7.68;4.20;;;665.90;1894.40;;;;;;5084385;28;20088;-78
2022/05/14 09:05:03;;;;;;;7.18;4.85;;;665.90;1996.80;;;;;;5079195;28;20032;-79
2022/05/14 09:07:29;;;;;;;8.38;5.00;;;666.20;1894.40;;;;;;5103368;28;20060;-78
2022/05/14 09:09:58;;;;;;;9.13;4.88;;;666.20;1894.40;;;;;;5083186;28;20036;-78
2022/05/14 09:12:31;;;;;;;8.30;4.43;;;666.40;1920.00;;;;;;5101179;28;20020;-78
2022/05/14 09:15:00;;;;;;;10.57;5.07;;;691.20;1894.40;;;;;;5081822;28;20016;-79
2022/05/14 09:17:29;;;;;;;11.50;4.78;;;691.30;1868.80;;;;;;5094671;28;20494;-79
2022/05/14 09:19:56;;;;;;;10.57;4.30;;;691.40;1792.00;;;;;;5112734;28;20024;-79
2022/05/14 09:22:22;;;;;;;8.63;4.32;;;691.40;1792.00;;;;;;5094487;28;20024;-78
2022/05/14 09:25:20;;;;;;;7.72;4.55;;;691.60;1766.40;;;;;;5113094;28;20028;-78
2022/05/14 09:28:00;;;;;;;8.15;4.30;;;691.70;1715.20;;;;;;5112629;28;20023;-79
2022/05/14 09:30:38;;;;;;;6.15;4.43;;;691.60;1664.00;;;;;;5094113;28;20080;-79
2022/05/14 09:33:06;;;;;;;5.90;4.20;;;691.80;1715.20;;;;;;5094556;28;20177;-79
2022/05/14 09:35:33;;;;;;;8.23;4.05;;;;;;;;;;5094283;28;20055;-79
2022/05/14 09:38:10;;;;;;;7.60;4.10;;;691.80;1689.60;;;;;;5094261;28;20023;-79
2022/05/14 09:40:36;;;;;;;8.60;3.90;;;692.10;1612.80;;;;;;5094269;28;20027;-79
2022/05/14 09:43:18;;;;;;;8.15;3.75;;;716.80;1612.80;;;;;;5112304;28;20505;-79
2022/05/14 09:46:10;;;;;;;9.90;4.10;;;716.80;1536.00;;;;;;5094375;28;20028;-79
2022/05/14 09:48:50;;;;;;;6.60;3.75;;;716.80;1510.40;;;;;;5013541;28;20052;-79
2022/05/14 09:51:32;;;;;;;12.20;3.58;;;717.30;1510.40;;;;;;5033476;28;20128;-79
2022/05/14 09:54:21;;;;;;;7.95;3.63;;;717.30;1459.20;;;;;;5016788;28;20064;-79
2022/05/14 09:57:46;;;;;;;7.72;3.53;;;717.20;1408.00;;;;;;5033892;28;20025;-79
2022/05/14 10:00:21;;;;;;;9.52;3.53;;;717.70;1408.00;;;;;;4939050;29;20070;-79
2022/05/14 10:02:59;;;;;;;8.50;3.65;;;742.50;1433.60;;;;;;4939455;29;20114;-79
2022/05/14 10:05:57;;;;;;;7.10;3.83;;;742.70;1382.40;;;;;;4955234;29;20035;-80
2022/05/14 10:08:41;;;;;;;29.17;4.30;;;717.70;1356.80;;;;;;4954912;28;20031;-79
2022/05/14 10:11:22;;;;;;;77.35;6.97;;;717.50;1382.40;;;;;;4954631;29;20043;-79
2022/05/14 10:14:00;;;;;;;5.53;3.10;;;717.70;1382.40;;;;;;4955279;29;20098;-79
2022/05/14 10:16:54;;;;;;;7.50;3.35;;;742.50;1331.20;;;;;;4954291;28;20024;-77
2022/05/14 10:19:34;;;;;;;7.18;2.25;;;742.70;1254.40;;;;;;4953433;29;20031;-78
2022/05/14 10:22:14;;;;;;;6.30;3.30;;;742.80;1126.40;;;;;;4951777;29;20027;-78
2022/05/14 10:28:19;;;;;;;8.50;3.13;;;742.90;1254.40;;;;;;5033195;28;20520;-79
2022/05/14 10:30:51;;;;;;;5.38;2.80;;;717.70;1280.00;;;;;;5077772;28;20046;-78
2022/05/14 10:33:22;;;;;;;11.57;3.83;;;717.50;1280.00;;;;;;5115293;28;20371;-79
2022/05/14 10:35:57;;;;;;;8.13;2.97;;;742.50;1280.00;;;;;;5115729;28;20015;-79
2022/05/14 10:38:37;;;;;;;6.95;3.00;;;742.50;1280.00;;;;;;5115173;28;20106;-79
2022/05/14 10:41:06;;;;;;;8.70;3.13;;;742.50;1228.80;;;;;;5115128;28;20031;-79
2022/05/14 10:44:08;;;;;;;3.83;2.70;;;717.70;1228.80;;;;;;5115422;28;20065;-79
2022/05/14 10:46:35;;;;;;;9.98;3.28;;;717.70;1228.80;;;;;;5096984;28;20023;-79
2022/05/14 10:49:44;;;;;;;5.07;2.67;;;742.50;1280.00;;;;;;5096719;28;20041;-79
2022/05/14 10:52:15;;;;;;;6.07;3.15;;;717.70;1254.40;;;;;;5087823;28;20049;-78
2022/05/14 10:54:43;;;;;;;4.95;2.67;;;742.80;1280.00;;;;;;5083624;28;20085;-78
2022/05/14 10:57:31;;;;;;;5.78;3.10;;;742.90;1203.20;;;;;;5093107;28;20391;-78
2022/05/14 11:00:10;;;;;;;12.75;3.10;;;743.10;1228.80;;;;;;5092633;28;20483;-77
2022/05/14 11:02:52;;;;;;;6.95;2.85;;;743.20;1177.60;;;;;;5092344;28;20036;-79
2022/05/14 11:05:33;;;;;;;6.50;2.90;;;768.30;1177.60;;;;;;5106876;28;20054;-78
2022/05/14 11:08:13;;;;;;;5.20;2.78;;;768.50;1126.40;;;;;;5104190;28;20443;-79
2022/05/14 11:10:40;;;;;;;4.25;2.50;;;768.60;1203.20;;;;;;5084889;28;20127;-79
2022/05/14 11:13:25;;;;;;;8.73;3.20;;;768.10;1152.00;;;;;;5102653;28;20024;-78
2022/05/14 11:16:10;;;;;;;5.05;2.30;;;768.10;1126.40;;;;;;5082293;28;20036;-80
2022/05/14 11:19:04;;;;;;;6.57;2.92;;;768.10;1152.00;;;;;;5083965;28;20379;-78
2022/05/14 11:21:49;;;;;;;7.68;2.90;;;768.60;1126.40;;;;;;5093467;28;20034;-78
2022/05/14 11:24:16;;;;;;;6.07;2.60;;;768.50;1152.00;;;;;;5096299;28;20020;-79
2022/05/14 11:26:53;;;;;;;5.55;2.95;;;768.40;1100.80;;;;;;5095479;28;20261;-79
2022/05/14 11:29:33;;;;;;;3.97;2.78;;;768.10;1100.80;;;;;;5114688;28;20028;-81
2022/05/14 11:32:05;;;;;;;6.97;2.58;;;743.30;1100.80;;;;;;5114200;28;20483;-78
2022/05/14 11:34:31;;;;;;;8.25;2.90;;;743.00;1126.40;;;;;;5114327;28;20027;-79
2022/05/14 11:37:02;;;;;;;5.20;3.00;;;743.30;1152.00;;;;;;5114310;28;20026;-78
2022/05/14 11:39:38;;;;;;;6.60;2.80;;;768.10;1126.40;;;;;;5114215;28;20023;-82
2022/05/14 11:42:30;;;;;;;6.65;2.63;;;768.20;1100.80;;;;;;5096144;28;20032;-79
2022/05/14 11:45:03;;;;;;;6.68;2.47;;;768.60;1100.80;;;;;;5105284;28;20096;-80
2022/05/14 11:47:32;;;;;;;6.85;2.80;;;768.30;1075.20;;;;;;5096110;28;20054;-79
2022/05/14 11:50:03;;;;;;;7.22;2.42;;;743.00;1126.40;;;;;;5113947;28;20027;-80
2022/05/14 11:52:46;;;;;;;8.05;3.22;;;742.80;1152.00;;;;;;5096122;28;20077;-81
2022/05/14 11:55:23;;;;;;;6.70;2.53;;;743.00;1152.00;;;;;;5114259;28;20482;-79
2022/05/14 11:58:11;;;;;;;7.88;3.20;;;768.00;1126.40;;;;;;5081678;28;20081;-80
2022/05/14 12:00:39;;;;;;;7.47;2.92;;;768.30;1100.80;;;;;;5083960;28;20036;-80
2022/05/14 12:03:14;;;;;;;4.97;2.70;;;768.60;1100.80;;;;;;5114196;28;20023;-80
2022/05/14 12:06:07;;;;;;;7.68;2.55;;;768.70;1100.80;;;;;;5096304;28;20028;-81
2022/05/14 12:08:45;;;;;;;13.05;3.20;;;768.90;1100.80;;;;;;5094968;28;20119;-83
2022/05/14 12:11:17;;;;;;;7.40;2.90;;;768.60;1126.40;;;;;;5095559;28;20043;-81
2022/05/14 12:14:00;;;;;;;8.55;2.72;;;768.20;1152.00;;;;;;5095387;28;20060;-81
2022/05/14 12:16:36;;;;;;;4.93;2.97;;;743.20;1152.00;;;;;;5095572;28;20093;-81
2022/05/14 12:19:06;;;;;;;5.72;2.80;;;743.20;1177.60;;;;;;5113765;28;20015;-81
2022/05/14 12:21:32;;;;;;;7.30;2.80;;;768.20;1152.00;;;;;;5095871;28;20030;-80
2022/05/14 12:23:58;;;;;;;6.70;3.35;;;768.70;1126.40;;;;;;5094560;28;20031;-80
2022/05/14 12:26:31;;;;;;;7.60;3.38;;;768.00;1152.00;;;;;;5094945;28;20024;-81
2022/05/14 12:29:00;;;;;;;13.13;3.05;;;768.00;1126.40;;;;;;5112748;28;20487;-80
2022/05/14 12:34:13;;;;;;;6.22;3.70;;;768.40;1152.00;;;;;;5111997;28;20072;-82
2022/05/14 12:36:53;;;;;;;6.35;2.70;;;768.40;1126.40;;;;;;5094820;28;20023;-83
2022/05/14 12:39:20;;;;;;;4.93;2.63;;;768.50;1126.40;;;;;;5111127;28;20034;-85
2022/05/14 12:41:52;;;;;;;10.55;3.00;;;768.40;1126.40;;;;;;5112970;28;20091;-83
2022/05/14 12:44:24;;;;;;;5.00;2.90;;;768.50;1100.80;;;;;;5094926;28;20027;-82
2022/05/14 12:46:56;;;;;;;7.15;3.17;;;768.60;1075.20;;;;;;5092357;28;20047;-81
2022/05/14 12:49:35;;;;;;;8.02;3.83;;;768.90;1075.20;;;;;;5095311;28;20424;-81
2022/05/14 12:52:13;;;;;;;9.20;4.10;;;793.80;1075.20;;;;;;5090290;28;20063;-81
2022/05/14 12:54:51;;;;;;;4.65;3.15;;;793.80;1075.20;;;;;;5089111;28;20023;-82